sensor_id;sensor_type;location;lat;lon;timestamp;pressure;altitude;pressure_sealevel;temperature;humidity
71043;BME280;58696;52.134;5.500;2023-01-25T00:01:09;103972.09;;;0.32;87.84
71043;BME280;58696;52.134;5.500;2023-01-25T00:03:36;103969.56;;;0.32;88.10
71043;BME280;58696;52.134;5.500;2023-01-25T00:06:03;103964.44;;;0.35;87.83
71043;BME280;58696;52.134;5.500;2023-01-25T00:08:29;103965.38;;;0.31;87.97
71043;BME280;58696;52.134;5.500;2023-01-25T00:10:59;103966.19;;;0.31;88.03
71043;BME280;58696;52.134;5.500;2023-01-25T00:13:26;103961.97;;;0.32;87.85
71043;BME280;58696;52.134;5.500;2023-01-25T00:15:53;103959.47;;;0.30;87.80
71043;BME280;58696;52.134;5.500;2023-01-25T00:18:20;103957.88;;;0.28;87.95
71043;BME280;58696;52.134;5.500;2023-01-25T00:20:47;103957.94;;;0.24;87.81
71043;BME280;58696;52.134;5.500;2023-01-25T00:23:16;103961.22;;;0.28;88.02
71043;BME280;58696;52.134;5.500;2023-01-25T00:25:42;103962.06;;;0.27;87.86
71043;BME280;58696;52.134;5.500;2023-01-25T00:28:10;103954.47;;;0.29;87.96
71043;BME280;58696;52.134;5.500;2023-01-25T00:30:38;103952.75;;;0.29;88.06
71043;BME280;58696;52.134;5.500;2023-01-25T00:35:55;103946.06;;;0.26;88.01
71043;BME280;58696;52.134;5.500;2023-01-25T00:38:39;103944.38;;;0.27;88.08
71043;BME280;58696;52.134;5.500;2023-01-25T00:41:11;103939.28;;;0.29;88.12
71043;BME280;58696;52.134;5.500;2023-01-25T00:43:40;103945.97;;;0.31;87.99
71043;BME280;58696;52.134;5.500;2023-01-25T00:46:08;103947.72;;;0.29;87.97
71043;BME280;58696;52.134;5.500;2023-01-25T00:48:34;103941.00;;;0.28;88.07
71043;BME280;58696;52.134;5.500;2023-01-25T00:51:01;103936.00;;;0.25;87.88
71043;BME280;58696;52.134;5.500;2023-01-25T00:53:31;103941.97;;;0.22;87.86
71043;BME280;58696;52.134;5.500;2023-01-25T00:56:00;103933.69;;;0.16;87.79
71043;BME280;58696;52.134;5.500;2023-01-25T00:58:27;103936.22;;;0.16;87.88
71043;BME280;58696;52.134;5.500;2023-01-25T01:00:55;103939.66;;;0.13;87.93
71043;BME280;58696;52.134;5.500;2023-01-25T01:03:23;103933.00;;;0.09;88.04
71043;BME280;58696;52.134;5.500;2023-01-25T01:06:06;103939.00;;;0.07;87.83
71043;BME280;58696;52.134;5.500;2023-01-25T01:08:39;103933.06;;;0.08;87.88
71043;BME280;58696;52.134;5.500;2023-01-25T01:11:11;103933.84;;;0.10;87.90
71043;BME280;58696;52.134;5.500;2023-01-25T01:13:39;103939.72;;;0.10;87.94
71043;BME280;58696;52.134;5.500;2023-01-25T01:16:07;103930.47;;;0.09;88.05
71043;BME280;58696;52.134;5.500;2023-01-25T01:18:39;103934.75;;;0.07;88.14
71043;BME280;58696;52.134;5.500;2023-01-25T01:21:06;103933.06;;;0.08;88.09
71043;BME280;58696;52.134;5.500;2023-01-25T01:23:36;103933.06;;;0.08;88.09
71043;BME280;58696;52.134;5.500;2023-01-25T01:26:05;103932.13;;;0.10;88.00
71043;BME280;58696;52.134;5.500;2023-01-25T01:28:33;103934.75;;;0.07;88.05
71043;BME280;58696;52.134;5.500;2023-01-25T01:33:27;103929.69;;;0.07;88.01
71043;BME280;58696;52.134;5.500;2023-01-25T01:35:55;103936.41;;;0.08;87.98
71043;BME280;58696;52.134;5.500;2023-01-25T01:38:22;103932.19;;;0.09;88.22
71043;BME280;58696;52.134;5.500;2023-01-25T01:40:50;103930.56;;;0.06;88.12
71043;BME280;58696;52.134;5.500;2023-01-25T01:43:21;103930.72;;;0.00;87.98
71043;BME280;58696;52.134;5.500;2023-01-25T01:53:58;103924.75;;;0.03;88.00
71043;BME280;58696;52.134;5.500;2023-01-25T01:56:32;103917.09;;;0.06;87.72
71043;BME280;58696;52.134;5.500;2023-01-25T01:59:04;103916.28;;;0.04;88.07
71043;BME280;58696;52.134;5.500;2023-01-25T02:01:31;103918.81;;;0.04;88.09
71043;BME280;58696;52.134;5.500;2023-01-25T02:04:04;103911.22;;;0.04;87.96
71043;BME280;58696;52.134;5.500;2023-01-25T02:06:38;103920.47;;;0.06;88.05
71043;BME280;58696;52.134;5.500;2023-01-25T02:09:07;103909.63;;;0.01;88.00
71043;BME280;58696;52.134;5.500;2023-01-25T02:11:36;103911.34;;;-0.01;88.01
71043;BME280;58696;52.134;5.500;2023-01-25T02:14:04;103902.97;;;-0.03;88.25
71043;BME280;58696;52.134;5.500;2023-01-25T02:16:31;103902.91;;;0.00;87.98
71043;BME280;58696;52.134;5.500;2023-01-25T02:18:58;103904.56;;;0.01;88.03
71043;BME280;58696;52.134;5.500;2023-01-25T02:21:32;103907.00;;;0.04;88.15
71043;BME280;58696;52.134;5.500;2023-01-25T02:24:08;103906.06;;;0.08;88.01
71043;BME280;58696;52.134;5.500;2023-01-25T02:26:42;103900.97;;;0.10;88.10
71043;BME280;58696;52.134;5.500;2023-01-25T02:29:12;103884.09;;;0.10;88.02
71043;BME280;58696;52.134;5.500;2023-01-25T02:31:43;103902.66;;;0.09;87.83
71043;BME280;58696;52.134;5.500;2023-01-25T02:34:10;103898.44;;;0.10;87.99
71043;BME280;58696;52.134;5.500;2023-01-25T02:36:37;103888.22;;;0.14;87.94
71043;BME280;58696;52.134;5.500;2023-01-25T02:39:09;103888.22;;;0.14;88.16
71043;BME280;58696;52.134;5.500;2023-01-25T02:41:40;103887.38;;;0.14;88.10
71043;BME280;58696;52.134;5.500;2023-01-25T02:44:26;103884.03;;;0.13;88.06
71043;BME280;58696;52.134;5.500;2023-01-25T02:46:54;103891.66;;;0.12;88.20
71043;BME280;58696;52.134;5.500;2023-01-25T02:49:21;103889.13;;;0.12;88.20
71043;BME280;58696;52.134;5.500;2023-01-25T02:51:50;103895.09;;;0.09;88.23
71043;BME280;58696;52.134;5.500;2023-01-25T02:54:23;103888.38;;;0.08;88.20
71043;BME280;58696;52.134;5.500;2023-01-25T02:56:52;103879.97;;;0.08;88.33
71043;BME280;58696;52.134;5.500;2023-01-25T02:59:19;103875.72;;;0.08;88.27
71043;BME280;58696;52.134;5.500;2023-01-25T03:01:47;103880.00;;;0.06;88.20
71043;BME280;58696;52.134;5.500;2023-01-25T03:04:13;103867.47;;;0.02;88.16
71043;BME280;58696;52.134;5.500;2023-01-25T03:06:40;103872.63;;;-0.03;88.25
71043;BME280;58696;52.134;5.500;2023-01-25T03:09:08;103871.03;;;-0.07;88.20
71043;BME280;58696;52.134;5.500;2023-01-25T03:11:38;103871.97;;;-0.10;88.08
71043;BME280;58696;52.134;5.500;2023-01-25T03:14:07;103863.63;;;-0.13;88.29
71043;BME280;58696;52.134;5.500;2023-01-25T03:16:34;103872.03;;;-0.13;88.22
71043;BME280;58696;52.134;5.500;2023-01-25T03:19:01;103867.91;;;-0.15;88.50
71043;BME280;58696;52.134;5.500;2023-01-25T03:21:28;103869.59;;;-0.16;88.39
71043;BME280;58696;52.134;5.500;2023-01-25T03:23:57;103852.78;;;-0.18;88.38
71043;BME280;58696;52.134;5.500;2023-01-25T03:26:25;103858.78;;;-0.22;88.34
71043;BME280;58696;52.134;5.500;2023-01-25T03:28:54;103849.53;;;-0.23;88.47
71043;BME280;58696;52.134;5.500;2023-01-25T03:31:22;103847.84;;;-0.23;88.56
71043;BME280;58696;52.134;5.500;2023-01-25T03:33:49;103850.38;;;-0.23;88.56
71043;BME280;58696;52.134;5.500;2023-01-25T03:36:16;103837.81;;;-0.26;88.39
71043;BME280;58696;52.134;5.500;2023-01-25T03:38:42;103843.59;;;-0.21;88.67
71043;BME280;58696;52.134;5.500;2023-01-25T03:41:09;103840.25;;;-0.23;88.42
71043;BME280;58696;52.134;5.500;2023-01-25T03:43:40;103837.72;;;-0.23;88.54
71043;BME280;58696;52.134;5.500;2023-01-25T03:46:09;103826.69;;;-0.19;88.36
71043;BME280;58696;52.134;5.500;2023-01-25T03:48:35;103825.81;;;-0.16;88.36
71043;BME280;58696;52.134;5.500;2023-01-25T03:51:02;103828.44;;;-0.21;88.36
71043;BME280;58696;52.134;5.500;2023-01-25T03:53:29;103830.88;;;-0.18;88.32
71043;BME280;58696;52.134;5.500;2023-01-25T03:56:01;103829.97;;;-0.15;88.39
71043;BME280;58696;52.134;5.500;2023-01-25T03:58:29;103824.00;;;-0.13;88.31
71043;BME280;58696;52.134;5.500;2023-01-25T04:01:00;103832.41;;;-0.11;88.38
71043;BME280;58696;52.134;5.500;2023-01-25T04:03:27;103826.47;;;-0.10;88.39
71043;BME280;58696;52.134;5.500;2023-01-25T04:05:59;103819.72;;;-0.09;88.34
71043;BME280;58696;52.134;5.500;2023-01-25T04:08:26;103819.63;;;-0.06;88.22
71043;BME280;58696;52.134;5.500;2023-01-25T04:11:01;103819.72;;;-0.09;88.22
71043;BME280;58696;52.134;5.500;2023-01-25T04:13:35;103821.38;;;-0.08;88.15
71043;BME280;58696;52.134;5.500;2023-01-25T04:16:06;103822.25;;;-0.09;88.08
71043;BME280;58696;52.134;5.500;2023-01-25T04:18:34;103822.25;;;-0.09;88.03
71043;BME280;58696;52.134;5.500;2023-01-25T04:21:01;103818.00;;;-0.09;88.15
71043;BME280;58696;52.134;5.500;2023-01-25T04:23:28;103811.22;;;-0.07;88.25
71043;BME280;58696;52.134;5.500;2023-01-25T04:25:56;103824.66;;;-0.06;88.24
71043;BME280;58696;52.134;5.500;2023-01-25T04:28:24;103818.78;;;-0.05;88.25
71043;BME280;58696;52.134;5.500;2023-01-25T04:30:52;103813.72;;;-0.07;88.27
71043;BME280;58696;52.134;5.500;2023-01-25T04:33:19;103806.13;;;-0.05;88.23
71043;BME280;58696;52.134;5.500;2023-01-25T04:35:46;103803.63;;;-0.07;88.17
71043;BME280;58696;52.134;5.500;2023-01-25T04:38:13;103797.00;;;-0.11;88.26
71043;BME280;58696;52.134;5.500;2023-01-25T04:40:43;103791.09;;;-0.11;88.21
71043;BME280;58696;52.134;5.500;2023-01-25T04:43:15;103784.44;;;-0.14;88.11
71043;BME280;58696;52.134;5.500;2023-01-25T04:45:42;103789.66;;;-0.20;88.22
71043;BME280;58696;52.134;5.500;2023-01-25T04:48:11;103782.25;;;-0.28;88.18
71043;BME280;58696;52.134;5.500;2023-01-25T04:50:42;103776.50;;;-0.33;88.17
71043;BME280;58696;52.134;5.500;2023-01-25T04:53:12;103778.03;;;-0.27;88.21
71043;BME280;58696;52.134;5.500;2023-01-25T04:55:38;103774.66;;;-0.28;88.13
71043;BME280;58696;52.134;5.500;2023-01-25T04:58:05;103775.53;;;-0.29;88.01
71043;BME280;58696;52.134;5.500;2023-01-25T05:00:34;103783.94;;;-0.27;88.14
71043;BME280;58696;52.134;5.500;2023-01-25T05:03:02;103787.22;;;-0.24;88.22
71043;BME280;58696;52.134;5.500;2023-01-25T05:05:29;103786.31;;;-0.20;88.26
71043;BME280;58696;52.134;5.500;2023-01-25T05:07:56;103786.31;;;-0.20;88.17
71043;BME280;58696;52.134;5.500;2023-01-25T05:10:22;103784.66;;;-0.23;88.46
71043;BME280;58696;52.134;5.500;2023-01-25T05:12:51;103788.84;;;-0.22;88.38
71043;BME280;58696;52.134;5.500;2023-01-25T05:15:20;103781.41;;;-0.27;88.30
71043;BME280;58696;52.134;5.500;2023-01-25T05:17:47;103778.88;;;-0.28;88.30
71043;BME280;58696;52.134;5.500;2023-01-25T05:20:13;103775.53;;;-0.29;88.36
71043;BME280;58696;52.134;5.500;2023-01-25T05:22:40;103769.59;;;-0.28;88.32
71043;BME280;58696;52.134;5.500;2023-01-25T05:25:07;103774.59;;;-0.24;88.38
71043;BME280;58696;52.134;5.500;2023-01-25T05:27:56;103772.94;;;-0.25;88.42
71043;BME280;58696;52.134;5.500;2023-01-25T05:30:25;103767.97;;;-0.29;88.34
71043;BME280;58696;52.134;5.500;2023-01-25T05:32:52;103759.75;;;-0.37;88.37
71043;BME280;58696;52.134;5.500;2023-01-25T05:35:21;103766.50;;;-0.37;88.51
71043;BME280;58696;52.134;5.500;2023-01-25T05:37:48;103766.47;;;-0.36;88.39
71043;BME280;58696;52.134;5.500;2023-01-25T05:40:15;103767.34;;;-0.38;88.45
71043;BME280;58696;52.134;5.500;2023-01-25T05:42:42;103764.97;;;-0.43;88.42
71043;BME280;58696;52.134;5.500;2023-01-25T05:45:09;103763.28;;;-0.44;88.46
71043;BME280;58696;52.134;5.500;2023-01-25T05:47:36;103761.63;;;-0.45;88.58
71043;BME280;58696;52.134;5.500;2023-01-25T05:50:04;103762.50;;;-0.46;88.60
71043;BME280;58696;52.134;5.500;2023-01-25T05:52:34;103771.88;;;-0.51;88.62
71043;BME280;58696;52.134;5.500;2023-01-25T05:55:01;103778.69;;;-0.53;88.57
71043;BME280;58696;52.134;5.500;2023-01-25T05:57:27;103777.03;;;-0.56;88.63
71043;BME280;58696;52.134;5.500;2023-01-25T05:59:55;103778.75;;;-0.56;88.49
71043;BME280;58696;52.134;5.500;2023-01-25T06:02:22;103776.47;;;-0.65;88.47
71043;BME280;58696;52.134;5.500;2023-01-25T06:04:51;103779.94;;;-0.71;88.64
71043;BME280;58696;52.134;5.500;2023-01-25T06:07:18;103781.50;;;-0.65;88.81
71043;BME280;58696;52.134;5.500;2023-01-25T06:09:45;103782.16;;;-0.57;88.90
71043;BME280;58696;52.134;5.500;2023-01-25T06:12:11;103784.63;;;-0.56;88.81
71043;BME280;58696;52.134;5.500;2023-01-25T06:14:40;103783.69;;;-0.51;88.79
71043;BME280;58696;52.134;5.500;2023-01-25T06:17:07;103787.13;;;-0.54;88.61
71043;BME280;58696;52.134;5.500;2023-01-25T06:19:37;103787.97;;;-0.54;88.63
71043;BME280;58696;52.134;5.500;2023-01-25T06:22:04;103791.38;;;-0.56;88.75
71043;BME280;58696;52.134;5.500;2023-01-25T06:24:31;103777.88;;;-0.55;88.70
71043;BME280;58696;52.134;5.500;2023-01-25T06:26:57;103776.31;;;-0.59;88.54
71043;BME280;58696;52.134;5.500;2023-01-25T06:29:24;103780.53;;;-0.60;88.52
71043;BME280;58696;52.134;5.500;2023-01-25T06:31:50;103783.06;;;-0.61;88.50
71043;BME280;58696;52.134;5.500;2023-01-25T06:34:17;103784.78;;;-0.62;88.44
71043;BME280;58696;52.134;5.500;2023-01-25T06:36:44;103778.06;;;-0.63;88.23
71043;BME280;58696;52.134;5.500;2023-01-25T06:39:11;103782.28;;;-0.63;88.42
71043;BME280;58696;52.134;5.500;2023-01-25T06:41:38;103785.59;;;-0.61;88.46
71043;BME280;58696;52.134;5.500;2023-01-25T06:44:05;103783.84;;;-0.58;88.61
71043;BME280;58696;52.134;5.500;2023-01-25T06:46:35;103781.38;;;-0.59;88.55
71043;BME280;58696;52.134;5.500;2023-01-25T06:49:02;103783.06;;;-0.60;88.56
71043;BME280;58696;52.134;5.500;2023-01-25T06:51:30;103787.25;;;-0.59;88.42
71043;BME280;58696;52.134;5.500;2023-01-25T06:54:02;103778.97;;;-0.65;88.43
71043;BME280;58696;52.134;5.500;2023-01-25T06:56:29;103775.69;;;-0.69;88.55
71043;BME280;58696;52.134;5.500;2023-01-25T06:58:58;103782.44;;;-0.69;88.29
71043;BME280;58696;52.134;5.500;2023-01-25T07:01:25;103779.03;;;-0.68;88.65
71043;BME280;58696;52.134;5.500;2023-01-25T07:03:57;103785.03;;;-0.72;88.56
71043;BME280;58696;52.134;5.500;2023-01-25T07:06:25;103784.34;;;-0.79;88.46
71043;BME280;58696;52.134;5.500;2023-01-25T07:08:52;103777.59;;;-0.78;88.58
71043;BME280;58696;52.134;5.500;2023-01-25T07:11:19;103769.16;;;-0.77;88.59
71043;BME280;58696;52.134;5.500;2023-01-25T07:13:46;103769.16;;;-0.77;88.47
71043;BME280;58696;52.134;5.500;2023-01-25T07:16:18;103757.34;;;-0.75;88.50
71043;BME280;58696;52.134;5.500;2023-01-25T07:18:45;103752.34;;;-0.78;88.46
71043;BME280;58696;52.134;5.500;2023-01-25T07:21:17;103746.53;;;-0.82;88.50
71043;BME280;58696;52.134;5.500;2023-01-25T07:23:47;103758.44;;;-0.87;88.47
71043;BME280;58696;52.134;5.500;2023-01-25T07:26:21;103752.63;;;-0.91;88.43
71043;BME280;58696;52.134;5.500;2023-01-25T07:28:51;103751.00;;;-0.93;88.50
71043;BME280;58696;52.134;5.500;2023-01-25T07:31:21;103756.72;;;-0.85;88.61
71043;BME280;58696;52.134;5.500;2023-01-25T07:33:53;103763.47;;;-0.86;88.62
71043;BME280;58696;52.134;5.500;2023-01-25T07:36:22;103758.56;;;-0.93;88.82
71043;BME280;58696;52.134;5.500;2023-01-25T07:38:54;103766.03;;;-0.89;88.67
71043;BME280;58696;52.134;5.500;2023-01-25T07:41:23;103762.78;;;-0.94;88.57
71043;BME280;58696;52.134;5.500;2023-01-25T07:43:51;103756.19;;;-0.98;88.73
71043;BME280;58696;52.134;5.500;2023-01-25T07:46:20;103751.97;;;-0.97;88.60
71043;BME280;58696;52.134;5.500;2023-01-25T07:48:50;103753.50;;;-0.92;88.75
71043;BME280;58696;52.134;5.500;2023-01-25T07:51:21;103741.72;;;-0.93;88.72
71043;BME280;58696;52.134;5.500;2023-01-25T07:53:53;103744.34;;;-0.96;88.62
71043;BME280;58696;52.134;5.500;2023-01-25T07:56:29;103745.84;;;-0.89;88.75
71043;BME280;58696;52.134;5.500;2023-01-25T07:58:59;103740.75;;;-0.87;88.70
71043;BME280;58696;52.134;5.500;2023-01-25T08:01:30;103736.53;;;-0.85;88.67
71043;BME280;58696;52.134;5.500;2023-01-25T08:04:01;103737.28;;;-0.82;88.61
71043;BME280;58696;52.134;5.500;2023-01-25T08:06:31;103734.81;;;-0.85;88.54
71043;BME280;58696;52.134;5.500;2023-01-25T08:09:08;103727.34;;;-0.89;88.50
71043;BME280;58696;52.134;5.500;2023-01-25T08:11:38;103726.41;;;-0.85;88.74
71043;BME280;58696;52.134;5.500;2023-01-25T08:14:06;103738.94;;;-0.81;88.78
71043;BME280;58696;52.134;5.500;2023-01-25T08:16:37;103736.44;;;-0.82;88.67
71043;BME280;58696;52.134;5.500;2023-01-25T08:19:06;103729.00;;;-0.87;88.66
71043;BME280;58696;52.134;5.500;2023-01-25T08:21:33;103725.66;;;-0.89;88.63
71043;BME280;58696;52.134;5.500;2023-01-25T08:24:05;103733.22;;;-0.89;88.51
71043;BME280;58696;52.134;5.500;2023-01-25T08:26:34;103730.66;;;-0.86;88.61
71043;BME280;58696;52.134;5.500;2023-01-25T08:29:05;103730.66;;;-0.86;88.65
71043;BME280;58696;52.134;5.500;2023-01-25T08:31:33;103726.63;;;-0.94;88.52
71043;BME280;58696;52.134;5.500;2023-01-25T08:34:00;103730.06;;;-0.97;88.51
71043;BME280;58696;52.134;5.500;2023-01-25T08:36:30;103727.69;;;-1.03;88.55
71043;BME280;58696;52.134;5.500;2023-01-25T08:38:59;103725.06;;;-1.00;88.70
71043;BME280;58696;52.134;5.500;2023-01-25T08:41:28;103731.63;;;-0.91;88.79
71043;BME280;58696;52.134;5.500;2023-01-25T08:43:55;103728.22;;;-0.90;88.75
71043;BME280;58696;52.134;5.500;2023-01-25T08:46:23;103727.28;;;-0.86;88.77
71043;BME280;58696;52.134;5.500;2023-01-25T08:48:54;103726.53;;;-0.90;88.62
71043;BME280;58696;52.134;5.500;2023-01-25T08:51:24;103718.94;;;-0.90;88.61
71043;BME280;58696;52.134;5.500;2023-01-25T08:53:51;103719.66;;;-0.85;88.74
71043;BME280;58696;52.134;5.500;2023-01-25T08:56:18;103708.69;;;-0.84;88.87
71043;BME280;58696;52.134;5.500;2023-01-25T08:58:46;103713.66;;;-0.79;88.95
71043;BME280;58696;52.134;5.500;2023-01-25T09:01:15;103709.38;;;-0.75;88.92
71043;BME280;58696;52.134;5.500;2023-01-25T09:03:44;103699.22;;;-0.74;88.58
71043;BME280;58696;52.134;5.500;2023-01-25T09:06:12;103707.69;;;-0.76;88.92
71043;BME280;58696;52.134;5.500;2023-01-25T09:08:42;103701.78;;;-0.75;88.88
71043;BME280;58696;52.134;5.500;2023-01-25T09:11:14;103702.72;;;-0.80;88.79
71043;BME280;58696;52.134;5.500;2023-01-25T09:13:45;103706.13;;;-0.82;88.82
71043;BME280;58696;52.134;5.500;2023-01-25T09:16:19;103696.13;;;-0.85;88.78
71043;BME280;58696;52.134;5.500;2023-01-25T09:18:55;103694.44;;;-0.85;88.77
71043;BME280;58696;52.134;5.500;2023-01-25T09:21:22;103689.16;;;-0.75;88.89
71043;BME280;58696;52.134;5.500;2023-01-25T09:23:52;103698.38;;;-0.74;88.83
71043;BME280;58696;52.134;5.500;2023-01-25T09:26:39;103689.28;;;-0.80;88.78
71043;BME280;58696;52.134;5.500;2023-01-25T09:29:12;103686.81;;;-0.83;88.66
71043;BME280;58696;52.134;5.500;2023-01-25T09:31:39;103687.63;;;-0.83;88.75
71043;BME280;58696;52.134;5.500;2023-01-25T09:34:06;103684.31;;;-0.85;88.69
71043;BME280;58696;52.134;5.500;2023-01-25T09:36:34;103690.25;;;-0.86;88.64
71043;BME280;58696;52.134;5.500;2023-01-25T09:39:01;103687.75;;;-0.87;88.82
71043;BME280;58696;52.134;5.500;2023-01-25T09:55:23;103673.81;;;-0.68;88.84
71043;BME280;58696;52.134;5.500;2023-01-25T09:57:52;103681.44;;;-0.69;88.74
71043;BME280;58696;52.134;5.500;2023-01-25T10:00:23;103678.09;;;-0.71;88.75
71043;BME280;58696;52.134;5.500;2023-01-25T10:03:25;103676.28;;;-0.66;88.78
71043;BME280;58696;52.134;5.500;2023-01-25T10:05:55;103679.47;;;-0.58;88.79
71043;BME280;58696;52.134;5.500;2023-01-25T10:08:37;103676.22;;;-0.63;88.68
71043;BME280;58696;52.134;5.500;2023-01-25T10:13:44;103662.88;;;-0.68;88.70
71043;BME280;58696;52.134;5.500;2023-01-25T10:21:34;103643.34;;;-0.62;88.65
71043;BME280;58696;52.134;5.500;2023-01-25T10:27:01;103640.75;;;-0.59;88.68
71043;BME280;58696;52.134;5.500;2023-01-25T10:29:34;103637.13;;;-0.50;88.78
71043;BME280;58696;52.134;5.500;2023-01-25T10:32:17;103627.88;;;-0.49;89.06
71043;BME280;58696;52.134;5.500;2023-01-25T10:34:47;103622.81;;;-0.49;88.86
71043;BME280;58696;52.134;5.500;2023-01-25T10:37:26;103620.28;;;-0.49;88.79
71043;BME280;58696;52.134;5.500;2023-01-25T10:40:09;103624.69;;;-0.56;88.87
71043;BME280;58696;52.134;5.500;2023-01-25T10:42:45;103609.47;;;-0.55;88.73
71043;BME280;58696;52.134;5.500;2023-01-25T10:45:15;103606.88;;;-0.51;88.81
71043;BME280;58696;52.134;5.500;2023-01-25T10:47:54;103604.13;;;-0.44;88.82
71043;BME280;58696;52.134;5.500;2023-01-25T10:53:04;103598.41;;;-0.49;88.70
71043;BME280;58696;52.134;5.500;2023-01-25T10:55:32;103588.19;;;-0.46;88.70
71043;BME280;58696;52.134;5.500;2023-01-25T10:57:59;103591.56;;;-0.45;88.67
71043;BME280;58696;52.134;5.500;2023-01-25T11:00:40;103589.03;;;-0.45;89.03
71043;BME280;58696;52.134;5.500;2023-01-25T11:03:19;103581.38;;;-0.42;88.71
71043;BME280;58696;52.134;5.500;2023-01-25T11:05:56;103578.84;;;-0.42;88.68
71043;BME280;58696;52.134;5.500;2023-01-25T11:10:57;103559.41;;;-0.40;88.87
71043;BME280;58696;52.134;5.500;2023-01-25T11:13:26;103557.66;;;-0.38;88.54
71043;BME280;58696;52.134;5.500;2023-01-25T11:15:54;103547.59;;;-0.40;88.97
71043;BME280;58696;52.134;5.500;2023-01-25T11:18:35;103553.66;;;-0.45;88.83
71043;BME280;58696;52.134;5.500;2023-01-25T11:23:32;103546.19;;;-0.50;88.73
71043;BME280;58696;52.134;5.500;2023-01-25T11:26:30;103536.22;;;-0.53;88.46
71043;BME280;58696;52.134;5.500;2023-01-25T11:29:14;103518.41;;;-0.50;88.33
71043;BME280;58696;52.134;5.500;2023-01-25T11:31:44;103517.41;;;-0.43;88.29
71043;BME280;58696;52.134;5.500;2023-01-25T11:34:19;103496.94;;;-0.35;88.46
71043;BME280;58696;52.134;5.500;2023-01-25T11:42:38;103495.34;;;-0.38;88.30
71043;BME280;58696;52.134;5.500;2023-01-25T11:48:00;103477.75;;;-0.41;88.34
71043;BME280;58696;52.134;5.500;2023-01-25T11:50:34;103467.50;;;-0.36;88.46
71043;BME280;58696;52.134;5.500;2023-01-25T11:56:29;103459.13;;;-0.38;88.63
71043;BME280;58696;52.134;5.500;2023-01-25T11:59:15;103449.97;;;-0.41;88.58
71043;BME280;58696;52.134;5.500;2023-01-25T12:10:11;103409.81;;;-0.50;88.25
71043;BME280;58696;52.134;5.500;2023-01-25T12:12:55;103404.75;;;-0.48;88.25
71043;BME280;58696;52.134;5.500;2023-01-25T12:15:46;103398.16;;;-0.54;88.39
71043;BME280;58696;52.134;5.500;2023-01-25T12:24:03;103382.84;;;-0.49;88.49
71043;BME280;58696;52.134;5.500;2023-01-25T12:26:53;103381.06;;;-0.46;88.62
71043;BME280;58696;52.134;5.500;2023-01-25T12:29:33;103384.34;;;-0.42;88.74
71043;BME280;58696;52.134;5.500;2023-01-25T12:32:07;103387.56;;;-0.39;88.78
71043;BME280;58696;52.134;5.500;2023-01-25T12:34:39;103371.66;;;-0.41;88.49
71043;BME280;58696;52.134;5.500;2023-01-25T12:37:31;103369.19;;;-0.42;88.44
71043;BME280;58696;52.134;5.500;2023-01-25T12:40:08;103367.19;;;-0.33;88.50
71043;BME280;58696;52.134;5.500;2023-01-25T12:42:44;103364.50;;;-0.28;88.61
71043;BME280;58696;52.134;5.500;2023-01-25T12:45:23;103360.31;;;-0.29;88.58
71043;BME280;58696;52.134;5.500;2023-01-25T12:48:00;103352.75;;;-0.29;88.59
71043;BME280;58696;52.134;5.500;2023-01-25T12:50:34;103345.28;;;-0.32;88.52
71043;BME280;58696;52.134;5.500;2023-01-25T12:55:55;103316.34;;;-0.50;88.69
71043;BME280;58696;52.134;5.500;2023-01-25T12:58:33;103318.94;;;-0.51;88.77
71043;BME280;58696;52.134;5.500;2023-01-25T13:11:41;103295.19;;;-0.72;89.14
71043;BME280;58696;52.134;5.500;2023-01-25T13:16:48;103302.69;;;-0.69;89.38
71043;BME280;58696;52.134;5.500;2023-01-25T13:22:01;103311.34;;;-0.78;89.13
71043;BME280;58696;52.134;5.500;2023-01-25T13:24:34;103302.94;;;-0.78;89.20
71043;BME280;58696;52.134;5.500;2023-01-25T13:27:28;103305.41;;;-0.75;89.26
71043;BME280;58696;52.134;5.500;2023-01-25T13:30:10;103297.63;;;-0.69;89.33
71043;BME280;58696;52.134;5.500;2023-01-25T13:38:01;103289.09;;;-0.65;89.39
71043;BME280;58696;52.134;5.500;2023-01-25T13:40:36;103286.69;;;-0.70;89.34
71043;BME280;58696;52.134;5.500;2023-01-25T13:43:18;103279.25;;;-0.74;89.33
71043;BME280;58696;52.134;5.500;2023-01-25T13:45:48;103286.91;;;-0.77;89.30
71043;BME280;58696;52.134;5.500;2023-01-25T13:48:19;103278.63;;;-0.81;89.41
71043;BME280;58696;52.134;5.500;2023-01-25T13:50:51;103280.38;;;-0.83;89.19
71043;BME280;58696;52.134;5.500;2023-01-25T13:53:21;103275.31;;;-0.83;89.09
71043;BME280;58696;52.134;5.500;2023-01-25T13:55:53;103267.81;;;-0.85;89.55
71043;BME280;58696;52.134;5.500;2023-01-25T14:01:14;103260.22;;;-0.85;89.33
71043;BME280;58696;52.134;5.500;2023-01-25T14:03:46;103257.75;;;-0.86;89.25
71043;BME280;58696;52.134;5.500;2023-01-25T14:06:19;103251.97;;;-0.90;89.15
71043;BME280;58696;52.134;5.500;2023-01-25T14:08:52;103245.97;;;-0.86;89.41
71043;BME280;58696;52.134;5.500;2023-01-25T14:11:22;103245.00;;;-0.82;89.36
71043;BME280;58696;52.134;5.500;2023-01-25T14:14:00;103244.94;;;-0.80;89.48
71043;BME280;58696;52.134;5.500;2023-01-25T14:16:29;103239.84;;;-0.78;89.47
71043;BME280;58696;52.134;5.500;2023-01-25T14:19:25;103238.00;;;-0.73;89.36
71043;BME280;58696;52.134;5.500;2023-01-25T14:24:37;103230.47;;;-0.75;89.49
71043;BME280;58696;52.134;5.500;2023-01-25T14:27:12;103238.97;;;-0.77;89.52
71043;BME280;58696;52.134;5.500;2023-01-25T14:29:40;103227.13;;;-0.75;89.50
71043;BME280;58696;52.134;5.500;2023-01-25T14:32:15;103227.94;;;-0.75;89.52
71043;BME280;58696;52.134;5.500;2023-01-25T14:34:45;103233.16;;;-0.80;89.59
71043;BME280;58696;52.134;5.500;2023-01-25T14:37:18;103233.28;;;-0.84;89.58
71043;BME280;58696;52.134;5.500;2023-01-25T14:39:50;103232.47;;;-0.85;89.57
71043;BME280;58696;52.134;5.500;2023-01-25T14:42:17;103225.56;;;-0.80;89.66
71043;BME280;58696;52.134;5.500;2023-01-25T14:44:44;103227.13;;;-0.75;89.80
71043;BME280;58696;52.134;5.500;2023-01-25T14:49:47;103225.22;;;-0.69;89.83
71043;BME280;58696;52.134;5.500;2023-01-25T14:52:17;103234.53;;;-0.71;89.97
71043;BME280;58696;52.134;5.500;2023-01-25T14:54:58;103231.25;;;-0.73;89.89